sensor_id;sensor_type;location;lat;lon;timestamp;P1;durP1;ratioP1;P2;durP2;ratioP2
22863;SDS011;11599;49.882;8.680;2022-09-09T00:03:24;3.23;;;0.80;;
22863;SDS011;11599;49.882;8.680;2022-09-09T00:13:48;4.50;;;0.80;;
22863;SDS011;11599;49.882;8.680;2022-09-09T00:24:15;2.70;;;0.97;;
22863;SDS011;11599;49.882;8.680;2022-09-09T00:34:38;2.33;;;0.90;;
22863;SDS011;11599;49.882;8.680;2022-09-09T00:45:08;2.83;;;0.70;;
22863;SDS011;11599;49.882;8.680;2022-09-09T00:55:36;3.80;;;0.80;;
22863;SDS011;11599;49.882;8.680;2022-09-09T01:06:11;3.90;;;0.83;;
22863;SDS011;11599;49.882;8.680;2022-09-09T01:16:33;6.07;;;1.23;;
22863;SDS011;11599;49.882;8.680;2022-09-09T01:26:56;4.77;;;1.40;;
22863;SDS011;11599;49.882;8.680;2022-09-09T01:37:20;3.50;;;1.00;;
22863;SDS011;11599;49.882;8.680;2022-09-09T01:47:43;3.73;;;0.93;;
22863;SDS011;11599;49.882;8.680;2022-09-09T01:58:22;4.20;;;0.90;;
22863;SDS011;11599;49.882;8.680;2022-09-09T02:08:53;5.77;;;1.40;;
22863;SDS011;11599;49.882;8.680;2022-09-09T02:19:16;6.30;;;1.53;;
22863;SDS011;11599;49.882;8.680;2022-09-09T02:30:09;4.33;;;1.10;;
22863;SDS011;11599;49.882;8.680;2022-09-09T02:40:40;4.97;;;1.10;;
22863;SDS011;11599;49.882;8.680;2022-09-09T02:51:06;3.93;;;1.10;;
22863;SDS011;11599;49.882;8.680;2022-09-09T03:01:31;8.93;;;1.00;;
22863;SDS011;11599;49.882;8.680;2022-09-09T03:11:55;2.67;;;1.00;;
22863;SDS011;11599;49.882;8.680;2022-09-09T03:22:17;3.70;;;0.90;;
22863;SDS011;11599;49.882;8.680;2022-09-09T03:32:41;6.17;;;1.20;;
22863;SDS011;11599;49.882;8.680;2022-09-09T03:43:03;3.60;;;0.87;;
22863;SDS011;11599;49.882;8.680;2022-09-09T03:53:26;4.30;;;1.00;;
22863;SDS011;11599;49.882;8.680;2022-09-09T04:03:48;4.83;;;0.90;;
22863;SDS011;11599;49.882;8.680;2022-09-09T04:14:12;3.57;;;1.10;;
22863;SDS011;11599;49.882;8.680;2022-09-09T04:24:34;5.00;;;1.47;;
22863;SDS011;11599;49.882;8.680;2022-09-09T04:34:57;6.40;;;0.93;;
22863;SDS011;11599;49.882;8.680;2022-09-09T04:45:19;5.00;;;1.27;;
22863;SDS011;11599;49.882;8.680;2022-09-09T04:55:42;5.73;;;1.00;;
22863;SDS011;11599;49.882;8.680;2022-09-09T05:06:05;3.13;;;0.90;;
22863;SDS011;11599;49.882;8.680;2022-09-09T05:16:31;6.00;;;1.30;;
22863;SDS011;11599;49.882;8.680;2022-09-09T05:26:52;4.70;;;0.70;;
22863;SDS011;11599;49.882;8.680;2022-09-09T05:37:16;2.53;;;0.80;;
22863;SDS011;11599;49.882;8.680;2022-09-09T05:47:38;4.10;;;0.90;;
22863;SDS011;11599;49.882;8.680;2022-09-09T05:58:05;3.13;;;0.93;;
22863;SDS011;11599;49.882;8.680;2022-09-09T06:08:27;4.67;;;0.80;;
22863;SDS011;11599;49.882;8.680;2022-09-09T06:18:50;4.27;;;0.70;;
22863;SDS011;11599;49.882;8.680;2022-09-09T06:29:13;3.73;;;0.70;;
22863;SDS011;11599;49.882;8.680;2022-09-09T06:39:37;6.47;;;0.80;;
22863;SDS011;11599;49.882;8.680;2022-09-09T06:50:00;5.87;;;0.80;;
22863;SDS011;11599;49.882;8.680;2022-09-09T07:00:24;5.77;;;1.00;;
22863;SDS011;11599;49.882;8.680;2022-09-09T07:10:46;5.27;;;1.40;;
22863;SDS011;11599;49.882;8.680;2022-09-09T07:21:10;6.20;;;0.90;;
22863;SDS011;11599;49.882;8.680;2022-09-09T07:31:33;8.97;;;1.20;;
22863;SDS011;11599;49.882;8.680;2022-09-09T07:41:56;5.70;;;0.90;;
22863;SDS011;11599;49.882;8.680;2022-09-09T07:52:18;5.43;;;1.27;;
22863;SDS011;11599;49.882;8.680;2022-09-09T08:02:42;7.90;;;1.30;;
22863;SDS011;11599;49.882;8.680;2022-09-09T08:13:05;4.40;;;1.00;;
22863;SDS011;11599;49.882;8.680;2022-09-09T08:23:27;6.10;;;1.13;;
22863;SDS011;11599;49.882;8.680;2022-09-09T08:33:49;7.03;;;1.33;;
22863;SDS011;11599;49.882;8.680;2022-09-09T08:44:13;5.90;;;1.00;;
22863;SDS011;11599;49.882;8.680;2022-09-09T08:54:36;8.80;;;1.33;;
22863;SDS011;11599;49.882;8.680;2022-09-09T09:05:07;6.13;;;1.30;;
22863;SDS011;11599;49.882;8.680;2022-09-09T09:15:32;3.77;;;1.13;;
22863;SDS011;11599;49.882;8.680;2022-09-09T09:25:58;7.70;;;1.20;;
22863;SDS011;11599;49.882;8.680;2022-09-09T09:36:23;5.60;;;1.60;;
22863;SDS011;11599;49.882;8.680;2022-09-09T09:46:47;9.38;;;1.58;;
22863;SDS011;11599;49.882;8.680;2022-09-09T09:57:10;6.77;;;1.20;;
22863;SDS011;11599;49.882;8.680;2022-09-09T10:07:35;6.53;;;1.40;;
22863;SDS011;11599;49.882;8.680;2022-09-09T10:18:01;5.25;;;1.10;;
22863;SDS011;11599;49.882;8.680;2022-09-09T10:28:29;2.85;;;0.90;;
22863;SDS011;11599;49.882;8.680;2022-09-09T10:38:53;7.15;;;1.00;;
22863;SDS011;11599;49.882;8.680;2022-09-09T10:49:23;6.40;;;1.20;;
22863;SDS011;11599;49.882;8.680;2022-09-09T10:59:48;5.57;;;1.47;;
22863;SDS011;11599;49.882;8.680;2022-09-09T11:10:17;4.83;;;1.40;;
22863;SDS011;11599;49.882;8.680;2022-09-09T11:20:40;2.73;;;0.73;;
22863;SDS011;11599;49.882;8.680;2022-09-09T11:31:11;7.27;;;1.30;;
22863;SDS011;11599;49.882;8.680;2022-09-09T11:41:35;3.37;;;1.00;;
22863;SDS011;11599;49.882;8.680;2022-09-09T11:51:58;5.33;;;1.30;;
22863;SDS011;11599;49.882;8.680;2022-09-09T12:02:22;8.60;;;1.30;;
22863;SDS011;11599;49.882;8.680;2022-09-09T12:12:45;9.27;;;1.10;;
22863;SDS011;11599;49.882;8.680;2022-09-09T12:23:12;5.53;;;1.23;;
22863;SDS011;11599;49.882;8.680;2022-09-09T12:33:38;7.13;;;1.30;;
22863;SDS011;11599;49.882;8.680;2022-09-09T12:44:03;7.47;;;1.30;;
22863;SDS011;11599;49.882;8.680;2022-09-09T12:54:27;3.37;;;0.80;;
22863;SDS011;11599;49.882;8.680;2022-09-09T13:04:49;3.37;;;0.87;;
22863;SDS011;11599;49.882;8.680;2022-09-09T13:15:16;2.43;;;0.70;;
22863;SDS011;11599;49.882;8.680;2022-09-09T13:25:40;4.22;;;0.80;;
22863;SDS011;11599;49.882;8.680;2022-09-09T13:36:06;0.90;;;0.30;;
22863;SDS011;11599;49.882;8.680;2022-09-09T13:46:31;0.90;;;0.30;;
22863;SDS011;11599;49.882;8.680;2022-09-09T13:56:54;2.37;;;0.50;;
22863;SDS011;11599;49.882;8.680;2022-09-09T14:07:16;2.15;;;0.50;;
22863;SDS011;11599;49.882;8.680;2022-09-09T14:17:39;4.13;;;0.47;;
22863;SDS011;11599;49.882;8.680;2022-09-09T14:28:01;4.05;;;0.70;;
22863;SDS011;11599;49.882;8.680;2022-09-09T14:38:34;3.83;;;0.70;;
22863;SDS011;11599;49.882;8.680;2022-09-09T14:48:58;2.63;;;0.70;;
22863;SDS011;11599;49.882;8.680;2022-09-09T14:59:21;4.10;;;0.70;;
22863;SDS011;11599;49.882;8.680;2022-09-09T15:09:43;1.58;;;0.47;;
22863;SDS011;11599;49.882;8.680;2022-09-09T15:20:06;2.28;;;0.63;;
22863;SDS011;11599;49.882;8.680;2022-09-09T15:30:28;2.83;;;0.68;;
22863;SDS011;11599;49.882;8.680;2022-09-09T15:40:54;4.85;;;0.90;;
22863;SDS011;11599;49.882;8.680;2022-09-09T15:51:16;3.17;;;0.70;;
22863;SDS011;11599;49.882;8.680;2022-09-09T16:01:40;2.25;;;0.55;;
22863;SDS011;11599;49.882;8.680;2022-09-09T16:12:02;1.35;;;0.55;;
22863;SDS011;11599;49.882;8.680;2022-09-09T16:22:27;0.52;;;0.40;;
22863;SDS011;11599;49.882;8.680;2022-09-09T16:32:49;3.42;;;0.60;;
22863;SDS011;11599;49.882;8.680;2022-09-09T16:43:12;2.22;;;0.50;;
22863;SDS011;11599;49.882;8.680;2022-09-09T16:53:33;2.45;;;0.68;;
22863;SDS011;11599;49.882;8.680;2022-09-09T17:03:56;2.33;;;0.50;;
22863;SDS011;11599;49.882;8.680;2022-09-09T17:14:19;2.63;;;0.80;;
22863;SDS011;11599;49.882;8.680;2022-09-09T17:24:54;3.13;;;0.60;;
22863;SDS011;11599;49.882;8.680;2022-09-09T17:35:16;5.00;;;0.90;;
22863;SDS011;11599;49.882;8.680;2022-09-09T17:45:39;2.70;;;0.70;;
22863;SDS011;11599;49.882;8.680;2022-09-09T17:56:04;2.13;;;0.70;;
22863;SDS011;11599;49.882;8.680;2022-09-09T18:06:28;5.07;;;0.90;;
22863;SDS011;11599;49.882;8.680;2022-09-09T18:16:49;2.87;;;0.70;;
22863;SDS011;11599;49.882;8.680;2022-09-09T18:27:12;3.00;;;1.03;;
22863;SDS011;11599;49.882;8.680;2022-09-09T18:37:34;2.13;;;0.67;;
22863;SDS011;11599;49.882;8.680;2022-09-09T18:47:58;4.50;;;0.63;;
22863;SDS011;11599;49.882;8.680;2022-09-09T18:58:20;2.50;;;0.70;;
22863;SDS011;11599;49.882;8.680;2022-09-09T19:08:44;2.47;;;0.50;;
22863;SDS011;11599;49.882;8.680;2022-09-09T19:19:13;1.47;;;0.50;;
22863;SDS011;11599;49.882;8.680;2022-09-09T19:29:36;1.80;;;0.57;;
22863;SDS011;11599;49.882;8.680;2022-09-09T19:40:02;1.83;;;0.57;;
22863;SDS011;11599;49.882;8.680;2022-09-09T19:50:27;1.80;;;0.57;;
22863;SDS011;11599;49.882;8.680;2022-09-09T20:00:52;3.07;;;0.67;;
22863;SDS011;11599;49.882;8.680;2022-09-09T20:11:18;4.37;;;0.70;;
22863;SDS011;11599;49.882;8.680;2022-09-09T20:21:42;4.87;;;0.73;;
22863;SDS011;11599;49.882;8.680;2022-09-09T20:32:05;2.77;;;0.60;;
22863;SDS011;11599;49.882;8.680;2022-09-09T20:42:26;2.53;;;0.77;;
22863;SDS011;11599;49.882;8.680;2022-09-09T20:52:49;1.03;;;0.50;;
22863;SDS011;11599;49.882;8.680;2022-09-09T21:03:12;1.00;;;0.70;;
22863;SDS011;11599;49.882;8.680;2022-09-09T21:13:35;3.07;;;0.70;;
22863;SDS011;11599;49.882;8.680;2022-09-09T21:23:57;1.20;;;0.50;;
22863;SDS011;11599;49.882;8.680;2022-09-09T21:34:21;0.90;;;0.50;;
22863;SDS011;11599;49.882;8.680;2022-09-09T21:44:42;1.10;;;0.60;;
22863;SDS011;11599;49.882;8.680;2022-09-09T21:55:07;6.20;;;0.73;;
22863;SDS011;11599;49.882;8.680;2022-09-09T22:05:30;3.10;;;0.60;;
22863;SDS011;11599;49.882;8.680;2022-09-09T22:15:55;3.00;;;0.83;;
22863;SDS011;11599;49.882;8.680;2022-09-09T22:26:17;3.13;;;0.80;;
22863;SDS011;11599;49.882;8.680;2022-09-09T22:36:40;1.50;;;0.70;;
22863;SDS011;11599;49.882;8.680;2022-09-09T22:47:01;5.77;;;0.90;;
22863;SDS011;11599;49.882;8.680;2022-09-09T22:57:24;1.97;;;0.70;;
22863;SDS011;11599;49.882;8.680;2022-09-09T23:07:46;2.93;;;0.80;;
22863;SDS011;11599;49.882;8.680;2022-09-09T23:18:09;2.83;;;0.70;;
22863;SDS011;11599;49.882;8.680;2022-09-09T23:28:30;1.30;;;0.67;;
22863;SDS011;11599;49.882;8.680;2022-09-09T23:38:53;6.40;;;1.30;;
22863;SDS011;11599;49.882;8.680;2022-09-09T23:49:15;5.20;;;0.90;;
22863;SDS011;11599;49.882;8.680;2022-09-09T23:59:38;3.37;;;0.93;;
